| time (UTC) | temp C | wind direction | speed KPH | gust KPH | rain 1hr cm | rain 24hr cm | rain mn cm | humidity % | barometer mb |
| 20260509064539 | 11 | 239 | 0.0 | 6.4 | 0.00 | 0.58 | 0.00 | 99 | 979.2 |
| 20260509063035 | 11 | 241 | 0.0 | 8.0 | 0.00 | 0.58 | 0.00 | 99 | 979.3 |
| 20260509061540 | 11 | 238 | 0.0 | 4.8 | 0.00 | 0.58 | 0.00 | 98 | 979.2 |
| 20260509060037 | 10 | 243 | 0.0 | 3.2 | 0.00 | 0.58 | 0.00 | 98 | 979.6 |
| 20260509054530 | 10 | 184 | 0.0 | 1.6 | 0.00 | 0.58 | 0.00 | 98 | 979.6 |
| 20260509053042 | 10 | 229 | 0.0 | 3.2 | 0.00 | 0.58 | 0.00 | 98 | 979.6 |
| 20260509051528 | 11 | 244 | 0.0 | 1.6 | 0.00 | 0.58 | 0.00 | 98 | 979.5 |
| 20260509050029 | 11 | 228 | 0.0 | 3.2 | 0.00 | 0.58 | 0.00 | 98 | 979.5 |
| 20260509044525 | 11 | 223 | 0.0 | 1.6 | 0.00 | 0.58 | 0.00 | 97 | 979.5 |
| 20260509043023 | 11 | 222 | 0.0 | 1.6 | 0.00 | 0.58 | 0.00 | 97 | 979.6 |
| 20260509041534 | 11 | 222 | 0.0 | 4.8 | 0.00 | 0.58 | 0.00 | 97 | 979.6 |
| 20260509040020 | 11 | 225 | 0.0 | 1.6 | 0.00 | 0.58 | 0.00 | 97 | 979.8 |
| 20260509034520 | 11 | 225 | 0.0 | 1.6 | 0.00 | 0.58 | 0.58 | 97 | 979.8 |
| 20260509033019 | 11 | 225 | 0.0 | 0.0 | 0.00 | 0.58 | 0.58 | 97 | 979.9 |
| 20260509031518 | 11 | 225 | 0.0 | 1.6 | 0.00 | 0.58 | 0.58 | 96 | 979.9 |
| 20260509030018 | 12 | 225 | 0.0 | 6.4 | 0.00 | 0.58 | 0.58 | 96 | 979.9 |
| 20260509024517 | 12 | 252 | 0.0 | 3.2 | 0.00 | 0.58 | 0.58 | 96 | 980.0 |
| 20260509023018 | 12 | 240 | 0.0 | 4.8 | 0.00 | 0.58 | 0.58 | 96 | 980.0 |
| 20260509021517 | 12 | 242 | 1.6 | 6.4 | 0.00 | 0.58 | 0.58 | 96 | 980.0 |
| 20260509020015 | 12 | 232 | 0.0 | 8.0 | 0.00 | 0.58 | 0.58 | 95 | 979.9 |
| 20260509014514 | 12 | 217 | 3.2 | 9.7 | 0.00 | 0.58 | 0.58 | 95 | 979.8 |
| 20260509013014 | 12 | 238 | 3.2 | 8.0 | 0.00 | 0.58 | 0.58 | 95 | 980.0 |
| 20260509011516 | 12 | 224 | 0.0 | 8.0 | 0.00 | 0.58 | 0.58 | 95 | 980.0 |
| 20260509010033 | 12 | 212 | 1.6 | 4.8 | 0.00 | 0.58 | 0.58 | 94 | 979.9 |
| 20260509004523 | 12 | 224 | 0.0 | 3.2 | 0.00 | 0.58 | 0.58 | 93 | 979.9 |
| 20260509003011 | 12 | 238 | 1.6 | 6.4 | 0.00 | 0.58 | 0.58 | 93 | 980.0 |
| 20260509001514 | 12 | 224 | 0.0 | 4.8 | 0.00 | 0.58 | 0.58 | 92 | 980.1 |
| 20260509000010 | 13 | 203 | 1.6 | 8.0 | 0.00 | 0.58 | 0.58 | 91 | 980.2 |
| 20260508234520 | 13 | 238 | 3.2 | 8.0 | 0.00 | 0.58 | 0.58 | 91 | 980.1 |
| 20260508233013 | 13 | 244 | 3.2 | 8.0 | 0.00 | 0.58 | 0.58 | 91 | 980.2 |
| 20260508231509 | 13 | 148 | 0.0 | 6.4 | 0.00 | 0.58 | 0.58 | 92 | 980.3 |
| 20260508230006 | 13 | 227 | 0.0 | 8.0 | 0.00 | 0.58 | 0.58 | 92 | 980.2 |
| 20260508224506 | 13 | 264 | 0.0 | 8.0 | 0.00 | 0.58 | 0.58 | 91 | 980.2 |
| 20260508223006 | 13 | 218 | 3.2 | 9.7 | 0.00 | 0.58 | 0.58 | 91 | 980.2 |
| 20260508221509 | 13 | 240 | 6.4 | 14.5 | 0.00 | 0.58 | 0.58 | 92 | 980.3 |
| 20260508220003 | 13 | 237 | 3.2 | 11.3 | 0.00 | 0.66 | 0.58 | 93 | 980.5 |
| 20260508214502 | 13 | 229 | 1.6 | 8.0 | 0.00 | 0.66 | 0.58 | 94 | 980.3 |
| 20260508213005 | 13 | 219 | 0.0 | 9.7 | 0.00 | 0.66 | 0.58 | 94 | 980.1 |
| 20260508211559 | 13 | 224 | 1.6 | 11.3 | 0.03 | 0.66 | 0.58 | 93 | 980.4 |
| 20260508210106 | 13 | 233 | 3.2 | 12.9 | 0.05 | 0.66 | 0.58 | 93 | 980.6 |
| 20260508204556 | 13 | 129 | 6.4 | 16.1 | 0.15 | 0.66 | 0.58 | 93 | 980.8 |
| 20260508203102 | 13 | 224 | 1.6 | 9.7 | 0.18 | 0.66 | 0.58 | 94 | 980.8 |
| 20260508201554 | 13 | 231 | 0.0 | 6.4 | 0.20 | 0.64 | 0.56 | 94 | 981.2 |
| 20260508200057 | 13 | 236 | 3.2 | 8.0 | 0.20 | 0.58 | 0.51 | 94 | 981.3 |
| 20260508194551 | 13 | 235 | 4.8 | 9.7 | 0.18 | 0.51 | 0.43 | 94 | 981.5 |
| 20260508193053 | 13 | 260 | 4.8 | 11.3 | 0.23 | 0.48 | 0.41 | 94 | 981.5 |
| 20260508191554 | 13 | 263 | 9.7 | 16.1 | 0.23 | 0.43 | 0.36 | 93 | 981.8 |
| 20260508190050 | 13 | 306 | 8.0 | 16.1 | 0.20 | 0.38 | 0.30 | 89 | 981.7 |
| 20260508184546 | 14 | 270 | 4.8 | 11.3 | 0.15 | 0.33 | 0.25 | 88 | 981.8 |
| 20260508183045 | 15 | 243 | 11.3 | 19.3 | 0.08 | 0.25 | 0.18 | 82 | 981.6 |
| 20260508181544 | 15 | 258 | 12.9 | 20.9 | 0.03 | 0.20 | 0.13 | 78 | 981.6 |
| 20260508180042 | 17 | 261 | 17.7 | 27.4 | 0.00 | 0.18 | 0.10 | 70 | 981.6 |
| 20260508174542 | 17 | 247 | 20.9 | 33.8 | 0.00 | 0.18 | 0.10 | 67 | 981.8 |
| 20260508173040 | 18 | 220 | 16.1 | 30.6 | 0.00 | 0.18 | 0.10 | 64 | 981.8 |
| 20260508171537 | 17 | 126 | 4.8 | 12.9 | 0.00 | 0.18 | 0.10 | 68 | 981.9 |
| 20260508170033 | 17 | 183 | 3.2 | 11.3 | 0.00 | 0.18 | 0.10 | 71 | 982.3 |
| 20260508164534 | 15 | 250 | 1.6 | 9.7 | 0.00 | 0.18 | 0.10 | 72 | 982.7 |
| 20260508163026 | 15 | 222 | 4.8 | 12.9 | 0.00 | 0.18 | 0.10 | 70 | 983.2 |
| 20260508161524 | 15 | 242 | 9.7 | 16.1 | 0.00 | 0.18 | 0.10 | 71 | 983.4 |
| 20260508160030 | 15 | 245 | 6.4 | 14.5 | 0.00 | 0.18 | 0.10 | 70 | 983.4 |
| 20260508154519 | 15 | 228 | 4.8 | 16.1 | 0.00 | 0.18 | 0.10 | 72 | 983.5 |
| 20260508153019 | 15 | 259 | 9.7 | 17.7 | 0.00 | 0.18 | 0.10 | 70 | 983.5 |
| 20260508151517 | 15 | 226 | 9.7 | 19.3 | 0.00 | 0.18 | 0.10 | 69 | 983.5 |
| 20260508150013 | 13 | 243 | 4.8 | 16.1 | 0.00 | 0.18 | 0.10 | 72 | 983.8 |
| 20260508144509 | 13 | 228 | 8.0 | 17.7 | 0.00 | 0.18 | 0.10 | 72 | 983.9 |
| 20260508143007 | 13 | 219 | 8.0 | 12.9 | 0.00 | 0.18 | 0.10 | 75 | 984.0 |
| 20260508141504 | 12 | 222 | 9.7 | 19.3 | 0.00 | 0.18 | 0.10 | 75 | 983.9 |
| 20260508134600 | 11 | 226 | 3.2 | 14.5 | 0.00 | 0.18 | 0.10 | 80 | 984.3 |
| 20260508133107 | 11 | 241 | 6.4 | 12.9 | 0.00 | 0.18 | 0.10 | 79 | 984.3 |
| 20260508131601 | 11 | 238 | 4.8 | 14.5 | 0.00 | 0.18 | 0.10 | 77 | 984.2 |
| 20260508130110 | 11 | 210 | 1.6 | 6.4 | 0.00 | 0.18 | 0.10 | 79 | 983.9 |
| 20260508124554 | 11 | 181 | 1.6 | 6.4 | 0.00 | 0.18 | 0.10 | 83 | 984.1 |
| 20260508123054 | 11 | 229 | 0.0 | 6.4 | 0.00 | 0.18 | 0.10 | 82 | 984.3 |
| 20260508121558 | -17 | 0.0 | 0.0 | 0.00 | 0.18 | 0.10 | 984.2 | ||
| 20260508120042 | -17 | 0.0 | 0.0 | 0.03 | 0.18 | 0.10 | 983.9 | ||
| 20260508114538 | -17 | 0.0 | 0.0 | 0.03 | 0.18 | 0.10 | 984.1 | ||
| 20260508113041 | 8 | 229 | 0.0 | 0.0 | 0.05 | 0.18 | 0.10 | 89 | 983.9 |
| 20260508111534 | 8 | 229 | 0.0 | 3.2 | 0.08 | 0.18 | 0.10 | 89 | 983.9 |
| 20260508110033 | 8 | 231 | 4.8 | 11.3 | 0.05 | 0.15 | 0.08 | 88 | 983.8 |
| 20260508104557 | 8 | 224 | 1.6 | 8.0 | 0.05 | 0.15 | 0.08 | 89 | 983.7 |
| 20260508103041 | 9 | 259 | 4.8 | 12.9 | 0.03 | 0.13 | 0.05 | 87 | 983.8 |
| 20260508101531 | 9 | 240 | 11.3 | 19.3 | 0.03 | 0.10 | 0.03 | 84 | 983.7 |
| 20260508100033 | 9 | 238 | 6.4 | 14.5 | 0.03 | 0.10 | 0.03 | 84 | 983.8 |
| 20260508094530 | 9 | 238 | 4.8 | 17.7 | 0.03 | 0.10 | 0.03 | 83 | 983.6 |
| 20260508093028 | 9 | 233 | 8.0 | 19.3 | 0.03 | 0.10 | 0.03 | 85 | 983.6 |
| 20260508091527 | 10 | 196 | 11.3 | 24.1 | 0.00 | 0.08 | 0.00 | 83 | 983.9 |
| 20260508090027 | 9 | 230 | 16.1 | 24.1 | 0.00 | 0.08 | 0.00 | 83 | 984.1 |
| 20260508084525 | 10 | 240 | 12.9 | 19.3 | 0.00 | 0.08 | 0.00 | 80 | 983.9 |
| 20260508083021 | 10 | 255 | 9.7 | 19.3 | 0.00 | 0.08 | 0.00 | 78 | 983.7 |
| 20260508081520 | 10 | 231 | 9.7 | 16.1 | 0.00 | 0.08 | 0.00 | 80 | 983.6 |
| 20260508080019 | 10 | 221 | 6.4 | 16.1 | 0.00 | 0.08 | 0.00 | 82 | 983.4 |
| 20260508074517 | 10 | 231 | 6.4 | 19.3 | 0.00 | 0.08 | 0.00 | 81 | 983.5 |
| 20260508073018 | 10 | 261 | 11.3 | 19.3 | 0.00 | 0.08 | 0.00 | 79 | 983.8 |
| 20260508071514 | 10 | 226 | 9.7 | 17.7 | 0.00 | 0.08 | 0.00 | 78 | 983.9 |
| 20260508070019 | 10 | 247 | 6.4 | 14.5 | 0.00 | 0.08 | 0.00 | 78 | 984.1 |